Monday, April 27, 2015, 6:08 PM EDT

KRIC, Richmond International Airport

Location: Sandston, VA, United States Lat: 37.517
Local Time: 6:08 PM EDT (22:08 GMT) Lon: -77.317
Time Zone: US/Eastern Elev: 167 ft

Show me the last for .
Show Decoded

2015-04-27 17:54 METAR KRIC 272154Z 33013KT 10SM BKN075 BKN095 16/01 A2982 RMK AO2 SLP103
                 T01560011 =
2015-04-27 16:54 METAR KRIC 272054Z 34012KT 10SM BKN080 OVC090 16/01 A2978 =
2015-04-27 15:54 METAR KRIC 271954Z 35010KT 10SM SCT075 BKN090 17/01 A2975 RMK AO2 SLP080
                 T01720006 =
2015-04-27 14:54 METAR KRIC 271854Z 36010KT 10SM BKN070 17/01 A2977 RMK AO2 SLP084 T01720011 $ =
2015-04-27 12:54 METAR KRIC 271654Z 30010KT 10SM SCT065 17/01 A2979 RMK AO2 SLP091 T01720011 =
2015-04-27 11:54 METAR KRIC 271554Z 34008KT 10SM FEW080 16/01 A2980 RMK AO2 SLP097 T01610006 =
2015-04-27 10:54 METAR KRIC 271454Z 36009KT 10SM FEW080 16/01 A2981 RMK AO2 SLP099 T01560011
                 51011 =
2015-04-27 09:54 METAR KRIC 271354Z 02010KT 10SM FEW080 14/01 A2980 RMK AO2 SLP097 T01440011 =
2015-04-27 08:54 METAR KRIC 271254Z 35006KT 10SM FEW080 12/03 A2980 RMK AO2 SLP094 T01220033 $ =
2015-04-27 07:54 METAR KRIC 271154Z 35007KT 10SM FEW080 09/03 A2978 RMK AO2 SLP088 70002
                 T00940033 10094 20056 53017 $ =
2015-04-27 06:54 METAR KRIC 271054Z 34007KT 10SM FEW075 07/04 A2975 RMK AO2 SLP080 T00720039 $ =
2015-04-27 05:54 METAR KRIC 270954Z 31004KT 10SM CLR 07/04 A2973 RMK AO2 SLP072 T00670044 $ =
2015-04-27 04:54 METAR KRIC 270854Z 29003KT 10SM CLR 07/04 A2973 RMK AO2 SLP071 T00670044 55002 $
                 =
2015-04-27 03:54 METAR KRIC 270754Z 21003KT 10SM CLR 06/04 A2972 RMK AO2 SLP068 T00560039 $ =
2015-04-27 02:54 METAR KRIC 270654Z 20003KT 10SM CLR 06/04 A2972 RMK AO2 SLP068 T00610039 $ =
2015-04-27 01:54 METAR KRIC 270554Z 20003KT 10SM CLR 08/04 A2973 RMK AO2 SLP073 T00780044 10133
                 20067 58004 $ =
2015-04-27 00:54 METAR KRIC 270454Z 21003KT 10SM CLR 07/04 A2974 RMK AO2 SLP074 T00720044
                 401720067 $ =
2015-04-26 23:54 METAR KRIC 270354Z 23003KT 10SM CLR 09/04 A2974 RMK AO2 SLP076 T00940044 $ =
2015-04-26 22:54 METAR KRIC 270254Z 20004KT 10SM FEW130 09/05 A2975 RMK AO2 SLP077 T00890050
                 51012 $ =
2015-04-26 21:54 METAR KRIC 270154Z 16003KT 10SM SCT130 11/07 A2974 RMK AO2 SLP076 T01060067 $ =
2015-04-26 20:54 METAR KRIC 270054Z 17003KT 10SM SCT120 12/07 A2972 RMK AO2 SLP070 T01220067 $ =
2015-04-26 19:54 METAR KRIC 262354Z 00000KT 10SM SCT120 13/05 A2971 RMK AO2 SLP065 T01330050
                 10172 20133 53005 $ =
2015-04-26 18:54 METAR KRIC 262254Z 04004KT 10SM FEW050 BKN140 16/03 A2970 RMK AO2 SLP063
                 T01560028 $ =

Support USWX by starting your Amazon purchase here.